VTSP/HKT METAR and TAF weather

Enter ICAO airport designator
Station Type Date Time Source
VTSP METAR 2022/05/25 01:30 UTC NOAA

VTSP 250130Z 31004KT 230V360 9999 VCSH FEW012 FEW018CB SCT020 25/25 Q1011 NOSIG


Station Type Date Time Source
VTSP Decoded METAR 2022/05/25 01:30 UTC NOAA

Phuket Airport, Thailand (VTSP) 08-07N 098-19E 10M
May 24, 2022 - 09:30 PM EDT / 2022.05.25 0130 UTC
Wind: from the NW (310 degrees) at 5 MPH (4 KT) (direction variable):0
Visibility: greater than 7 mile(s):0
Sky conditions: partly cloudy
Weather: showers in the vicinity; Cumulonimbus clouds observed
Temperature: 77 F (25 C)
Dew Point: 77 F (25 C)
Relative Humidity: 100%
Pressure (altimeter): 29.85 in. Hg (1011 hPa)
ob: VTSP 250130Z 31004KT 230V360 9999 VCSH FEW012 FEW018CB SCT020 25/25 Q1011 NOSIG
cycle: 1

Station Type Date Time Source
VTSP TAF 2022/05/24 18:36 UTC NOAA

TAF VTSP 241700Z 2418/2524 24006KT 9999 FEW020
TEMPO 2500/2504 26015G25KT 3000 TSRA FEW018CB SCT020 BKN100
BECMG 2514/2516 00000KT

Example: see airport list